createdAt,value
2018-08-11T00:01:39.981Z,19.00
2018-08-11T00:04:07.001Z,19.00
2018-08-11T00:06:33.974Z,18.90
2018-08-11T00:09:00.951Z,18.90
2018-08-11T00:11:28.028Z,18.80
2018-08-11T00:13:55.033Z,18.80
2018-08-11T00:16:21.992Z,18.80
2018-08-11T00:18:48.960Z,18.60
2018-08-11T00:21:15.997Z,18.70
2018-08-11T00:23:43.054Z,18.70
2018-08-11T00:26:10.048Z,18.70
2018-08-11T00:28:37.027Z,18.80
2018-08-11T00:31:04.588Z,18.70
2018-08-11T00:33:31.546Z,18.70
2018-08-11T00:35:58.789Z,18.60
2018-08-11T00:38:25.799Z,18.60
2018-08-11T00:40:52.787Z,18.60
2018-08-11T00:43:19.766Z,18.50
2018-08-11T00:45:46.771Z,18.50
2018-08-11T00:48:13.850Z,18.40
2018-08-11T00:50:40.803Z,18.40
2018-08-11T00:53:07.802Z,18.40
2018-08-11T00:55:34.786Z,18.30
2018-08-11T00:58:01.807Z,18.30
2018-08-11T01:00:28.776Z,18.30
2018-08-11T01:02:55.774Z,18.30
2018-08-11T01:05:22.778Z,18.30
2018-08-11T01:07:50.381Z,18.40
2018-08-11T01:10:17.612Z,18.40
2018-08-11T01:12:45.197Z,18.40
2018-08-11T01:15:14.351Z,18.40
2018-08-11T01:17:41.305Z,18.40
2018-08-11T01:20:09.453Z,18.30
2018-08-11T01:22:36.795Z,18.30
2018-08-11T01:25:04.217Z,18.30
2018-08-11T01:27:31.215Z,18.30
2018-08-11T01:29:58.174Z,18.20
2018-08-11T01:32:25.178Z,18.10
2018-08-11T01:34:52.124Z,18.10
2018-08-11T01:37:19.064Z,18.00
2018-08-11T01:39:46.025Z,18.00
2018-08-11T01:42:13.060Z,18.00
2018-08-11T01:44:40.363Z,17.90
2018-08-11T01:47:07.287Z,17.90
2018-08-11T01:49:34.308Z,17.90
2018-08-11T01:52:01.228Z,17.90
2018-08-11T01:54:28.220Z,17.90
2018-08-11T01:56:55.477Z,17.80
2018-08-11T01:59:22.445Z,17.70
2018-08-11T02:01:50.026Z,17.70
2018-08-11T02:06:44.098Z,17.70
2018-08-11T02:09:11.043Z,17.60
2018-08-11T02:11:38.237Z,17.60
2018-08-11T02:14:05.256Z,17.60
2018-08-11T02:16:32.284Z,17.60
2018-08-11T02:18:59.323Z,17.50
2018-08-11T02:21:26.273Z,17.50
2018-08-11T02:23:53.262Z,17.40
2018-08-11T02:26:20.505Z,17.40
2018-08-11T02:28:47.502Z,17.40
2018-08-11T02:31:14.430Z,17.40
2018-08-11T02:33:41.406Z,17.40
2018-08-11T02:36:08.331Z,17.30
2018-08-11T02:38:35.285Z,17.40
2018-08-11T02:41:02.250Z,17.40
2018-08-11T02:43:29.210Z,17.50
2018-08-11T02:45:56.175Z,17.60
2018-08-11T02:48:23.203Z,17.70
2018-08-11T02:50:50.208Z,17.70
2018-08-11T02:53:17.204Z,17.80
2018-08-11T02:55:45.561Z,17.70
2018-08-11T02:58:12.513Z,17.80
2018-08-11T03:00:39.524Z,17.80
2018-08-11T03:03:06.466Z,17.80
2018-08-11T03:05:33.453Z,17.80
2018-08-11T03:08:00.467Z,17.70
2018-08-11T03:10:27.496Z,17.70
2018-08-11T03:12:54.446Z,17.80
2018-08-11T03:15:21.454Z,17.80
2018-08-11T03:17:48.793Z,17.70
2018-08-11T03:20:15.796Z,17.60
2018-08-11T03:22:43.428Z,17.60
2018-08-11T03:25:10.554Z,17.60
2018-08-11T03:27:37.821Z,17.50
2018-08-11T03:30:04.995Z,17.50
2018-08-11T03:32:32.110Z,17.50
2018-08-11T03:34:59.036Z,17.60
2018-08-11T03:37:26.019Z,17.70
2018-08-11T03:39:52.989Z,17.60
2018-08-11T03:42:19.964Z,17.60
2018-08-11T03:44:46.922Z,17.60
2018-08-11T03:47:13.942Z,17.60
2018-08-11T03:49:40.932Z,17.60
2018-08-11T03:52:07.935Z,17.50
2018-08-11T03:54:34.923Z,17.50
2018-08-11T03:57:01.873Z,17.50
2018-08-11T03:59:28.886Z,17.50
2018-08-11T04:01:55.849Z,17.40
2018-08-11T04:04:22.838Z,17.50
2018-08-11T04:06:49.806Z,17.50
2018-08-11T04:09:16.853Z,17.40
2018-08-11T04:11:43.834Z,17.40
2018-08-11T04:14:10.817Z,17.40
2018-08-11T04:16:37.780Z,17.40
2018-08-11T04:19:04.787Z,17.50
2018-08-11T04:21:31.810Z,17.50
2018-08-11T04:23:58.803Z,17.50
2018-08-11T04:26:25.802Z,17.60
2018-08-11T04:28:52.830Z,17.50
2018-08-11T04:31:19.756Z,17.50
2018-08-11T04:33:46.762Z,17.50
2018-08-11T04:36:13.731Z,17.50
2018-08-11T04:38:40.692Z,17.50
2018-08-11T04:41:08.078Z,17.50
2018-08-11T04:43:35.068Z,17.50
2018-08-11T04:46:02.034Z,17.60
2018-08-11T04:48:29.022Z,17.60
2018-08-11T04:50:55.943Z,17.80
2018-08-11T04:53:22.923Z,17.80
2018-08-11T04:55:49.874Z,17.90
2018-08-11T04:58:16.827Z,18.10
2018-08-11T05:00:43.880Z,18.20
2018-08-11T05:03:10.795Z,18.30
2018-08-11T05:05:37.772Z,18.30
2018-08-11T05:08:05.120Z,18.40
2018-08-11T05:10:32.040Z,18.50
2018-08-11T05:12:58.953Z,18.60
2018-08-11T05:15:25.902Z,18.70
2018-08-11T05:17:52.879Z,18.90
2018-08-11T05:20:19.829Z,19.00
2018-08-11T05:22:46.867Z,19.00
2018-08-11T05:25:13.834Z,18.70
2018-08-11T05:27:40.801Z,18.70
2018-08-11T05:30:08.218Z,18.70
2018-08-11T05:32:35.205Z,18.70
2018-08-11T05:35:02.172Z,18.70
2018-08-11T05:37:29.132Z,18.70
2018-08-11T05:39:56.086Z,18.60
2018-08-11T05:42:23.107Z,18.70
2018-08-11T05:44:50.045Z,18.70
2018-08-11T05:47:17.017Z,18.70
2018-08-11T05:49:43.974Z,18.60
2018-08-11T05:52:10.966Z,18.70
2018-08-11T05:54:37.941Z,18.80
2018-08-11T05:57:04.902Z,18.80
2018-08-11T05:59:31.820Z,18.80
2018-08-11T06:01:58.782Z,18.70
2018-08-11T06:04:25.738Z,18.80
2018-08-11T06:06:52.720Z,18.80
2018-08-11T06:09:20.385Z,18.90
2018-08-11T06:11:47.297Z,18.90
2018-08-11T06:14:14.292Z,18.90
2018-08-11T06:16:41.275Z,18.90
2018-08-11T06:19:08.243Z,19.00
2018-08-11T06:21:35.225Z,19.00
2018-08-11T06:24:02.213Z,19.10
2018-08-11T06:26:29.181Z,19.00
2018-08-11T06:28:56.100Z,18.90
2018-08-11T06:31:23.149Z,18.90
2018-08-11T06:33:50.135Z,19.10
2018-08-11T06:36:17.124Z,19.20
2018-08-11T06:38:44.446Z,19.50
2018-08-11T06:41:11.418Z,19.70
2018-08-11T06:43:38.340Z,20.10
2018-08-11T06:46:05.330Z,20.40
2018-08-11T06:48:32.302Z,20.50
2018-08-11T06:50:59.258Z,20.70
2018-08-11T06:53:33.493Z,21.10
2018-08-11T06:56:01.629Z,22.10
2018-08-11T06:58:28.613Z,22.70
2018-08-11T07:00:55.604Z,22.60
2018-08-11T07:03:22.523Z,22.40
2018-08-11T07:05:49.474Z,22.30
2018-08-11T07:08:16.413Z,22.00
2018-08-11T07:10:43.468Z,21.90
2018-08-11T07:13:10.471Z,21.70
2018-08-11T07:15:38.229Z,21.50
2018-08-11T07:18:05.267Z,21.30
2018-08-11T07:20:32.323Z,21.10
2018-08-11T07:22:59.253Z,21.10
2018-08-11T07:25:26.216Z,21.50
2018-08-11T07:35:14.453Z,22.20
2018-08-11T07:37:41.476Z,23.00
2018-08-11T07:40:08.501Z,22.50
2018-08-11T07:42:35.513Z,23.00
2018-08-11T07:45:02.567Z,23.20
2018-08-11T07:47:29.560Z,23.30
2018-08-11T07:49:56.556Z,23.00
2018-08-11T07:52:23.567Z,22.80
2018-08-11T07:54:50.594Z,22.80
2018-08-11T07:57:17.586Z,22.80
2018-08-11T07:59:44.570Z,22.90
2018-08-11T08:02:11.575Z,22.90
2018-08-11T08:04:38.585Z,23.00
2018-08-11T08:07:05.727Z,23.10
2018-08-11T08:09:32.770Z,23.50
2018-08-11T08:11:59.836Z,23.40
2018-08-11T08:14:26.832Z,23.60
2018-08-11T08:16:53.832Z,23.70
2018-08-11T08:19:20.877Z,23.90
2018-08-11T08:21:47.848Z,24.10
2018-08-11T08:24:14.822Z,23.40
2018-08-11T08:26:41.879Z,23.30
2018-08-11T08:29:08.946Z,23.20
2018-08-11T08:31:35.911Z,22.90
2018-08-11T08:34:02.885Z,22.80
2018-08-11T08:36:29.888Z,22.80
2018-08-11T08:38:57.076Z,22.70
2018-08-11T08:41:24.088Z,22.80
2018-08-11T08:43:51.147Z,22.90
2018-08-11T08:46:18.238Z,22.60
2018-08-11T08:48:45.284Z,22.70
2018-08-11T08:51:12.276Z,22.90
2018-08-11T08:53:39.292Z,23.10
2018-08-11T08:56:06.304Z,23.30
2018-08-11T08:58:33.284Z,23.40
2018-08-11T09:01:00.310Z,23.80
2018-08-11T09:03:27.352Z,23.80
2018-08-11T09:05:54.396Z,23.70
2018-08-11T09:08:21.486Z,23.50
2018-08-11T09:10:48.529Z,23.20
2018-08-11T09:13:15.549Z,23.00
2018-08-11T09:15:42.523Z,22.90
2018-08-11T09:18:09.564Z,23.00
2018-08-11T09:20:36.804Z,23.30
2018-08-11T09:47:36.154Z,24.00
2018-08-11T09:50:03.239Z,26.00
2018-08-11T09:52:30.185Z,26.60
2018-08-11T10:17:03.606Z,26.10
2018-08-11T10:21:57.705Z,24.30
2018-08-11T10:24:24.748Z,23.80
2018-08-11T10:26:51.761Z,23.50
2018-08-11T10:29:18.978Z,24.00
2018-08-11T10:34:13.206Z,24.20
2018-08-11T10:36:40.240Z,25.70
2018-08-11T10:53:50.854Z,25.70
2018-08-11T10:56:17.848Z,24.10
2018-08-11T10:58:45.903Z,23.90
2018-08-11T11:03:42.544Z,24.00
2018-08-11T11:06:10.764Z,24.40
2018-08-11T11:08:37.773Z,24.30
2018-08-11T11:11:04.809Z,24.00
2018-08-11T11:13:31.773Z,24.40
2018-08-11T11:23:20.163Z,25.40
2018-08-11T13:01:26.105Z,26.30
2018-08-11T16:10:29.035Z,25.90
2018-08-11T16:12:56.024Z,23.70
2018-08-11T16:15:23.098Z,23.70
2018-08-11T16:17:50.490Z,23.80
2018-08-11T16:20:18.119Z,23.90
2018-08-11T16:52:11.975Z,23.90
2018-08-11T16:54:39.412Z,23.10
2018-08-11T16:57:06.501Z,23.30
2018-08-11T16:59:33.631Z,23.30
2018-08-11T17:02:00.636Z,23.10
2018-08-11T17:04:27.666Z,22.90
2018-08-11T17:06:54.714Z,22.70
2018-08-11T17:09:21.793Z,22.70
2018-08-11T17:11:48.815Z,22.70
2018-08-11T17:14:15.939Z,22.70
2018-08-11T17:16:43.007Z,22.90
2018-08-11T17:19:10.147Z,22.90
2018-08-11T17:21:37.170Z,22.70
2018-08-11T17:24:04.344Z,22.60
2018-08-11T17:26:31.345Z,22.60
2018-08-11T17:28:58.435Z,22.50
2018-08-11T17:31:25.576Z,22.50
2018-08-11T17:33:52.577Z,22.50
2018-08-11T17:36:19.600Z,22.40
2018-08-11T17:38:46.628Z,22.20
2018-08-11T17:41:13.755Z,22.20
2018-08-11T17:43:40.822Z,22.30
2018-08-11T17:46:08.208Z,22.40
2018-08-11T17:48:35.270Z,22.40
2018-08-11T17:51:02.370Z,22.30
2018-08-11T17:53:29.537Z,22.40
2018-08-11T17:55:56.626Z,22.50
2018-08-11T17:58:24.737Z,22.20
2018-08-11T18:00:51.849Z,22.00
2018-08-11T18:03:18.870Z,22.00
2018-08-11T18:05:46.242Z,22.00
2018-08-11T18:08:13.366Z,21.90
2018-08-11T18:10:40.525Z,21.90
2018-08-11T18:13:07.683Z,21.60
2018-08-11T18:15:35.191Z,21.70
2018-08-11T18:18:02.232Z,21.60
2018-08-11T18:20:29.519Z,21.60
2018-08-11T18:22:56.689Z,21.60
2018-08-11T18:25:23.755Z,21.40
2018-08-11T18:27:50.839Z,21.10
2018-08-11T18:30:18.001Z,21.20
2018-08-11T18:32:45.091Z,21.00
2018-08-11T18:35:12.190Z,21.00
2018-08-11T18:37:39.281Z,20.80
2018-08-11T18:40:06.539Z,20.90
2018-08-11T18:43:37.350Z,21.00
2018-08-11T18:46:05.064Z,21.00
2018-08-11T18:48:33.353Z,21.00
2018-08-11T18:51:01.179Z,20.80
2018-08-11T18:53:28.704Z,20.90
2018-08-11T18:55:55.745Z,20.90
2018-08-11T18:58:22.828Z,20.80
2018-08-11T19:00:49.981Z,21.00
2018-08-11T19:03:16.968Z,21.00
2018-08-11T19:05:44.151Z,20.90
2018-08-11T19:08:11.280Z,20.90
2018-08-11T19:10:38.308Z,20.80
2018-08-11T19:13:05.464Z,20.90
2018-08-11T19:15:32.440Z,20.80
2018-08-11T19:17:59.549Z,20.80
2018-08-11T19:20:26.584Z,20.70
2018-08-11T19:22:54.199Z,20.90
2018-08-11T19:25:21.345Z,21.00
2018-08-11T19:27:48.384Z,21.00
2018-08-11T19:30:15.435Z,20.60
2018-08-11T19:32:42.561Z,20.40
2018-08-11T19:35:09.517Z,20.30
2018-08-11T19:37:37.066Z,20.30
2018-08-11T19:40:05.354Z,20.30
2018-08-11T19:42:32.363Z,20.30
2018-08-11T19:44:59.384Z,20.30
2018-08-11T19:47:26.408Z,20.30
2018-08-11T19:49:53.457Z,20.40
2018-08-11T19:52:20.480Z,20.10
2018-08-11T19:54:47.881Z,20.20
2018-08-11T19:57:14.831Z,20.10
2018-08-11T19:59:41.805Z,20.00
2018-08-11T20:07:02.959Z,20.00
2018-08-11T20:09:29.939Z,19.80
2018-08-11T20:11:56.887Z,19.80
2018-08-11T20:14:23.937Z,19.80
2018-08-11T20:16:50.911Z,19.80
2018-08-11T20:19:18.055Z,19.80
2018-08-11T20:21:44.976Z,19.90
2018-08-11T20:24:11.984Z,20.00
2018-08-11T20:26:39.017Z,19.80
2018-08-11T20:29:06.045Z,19.90
2018-08-11T20:31:33.004Z,19.70
2018-08-11T20:34:00.011Z,19.60
2018-08-11T20:36:26.997Z,19.70
2018-08-11T20:38:53.983Z,19.70
2018-08-11T20:41:21.093Z,19.60
2018-08-11T20:43:48.553Z,19.40
2018-08-11T20:46:15.598Z,19.30
2018-08-11T20:48:42.540Z,19.40
2018-08-11T20:51:09.745Z,19.50
2018-08-11T20:53:36.673Z,19.40
2018-08-11T20:56:03.611Z,19.30
2018-08-11T20:58:30.623Z,19.40
2018-08-11T21:00:57.614Z,19.50
2018-08-11T21:03:24.563Z,19.40
2018-08-11T21:05:51.608Z,19.50
2018-08-11T21:08:18.621Z,19.30
2018-08-11T21:10:45.612Z,19.30
2018-08-11T21:13:12.627Z,19.20
2018-08-11T21:15:39.618Z,19.10
2018-08-11T21:18:06.624Z,19.10
2018-08-11T21:20:33.918Z,19.20
2018-08-11T21:23:00.937Z,19.20
2018-08-11T21:25:27.945Z,19.20
2018-08-11T21:27:54.982Z,19.00
2018-08-11T21:30:21.924Z,19.10
2018-08-11T21:32:48.925Z,19.10
2018-08-11T21:35:15.905Z,18.90
2018-08-11T21:42:39.240Z,18.80
2018-08-11T21:45:06.854Z,18.90
2018-08-11T21:47:33.911Z,18.90
2018-08-11T21:50:00.954Z,18.90
2018-08-11T21:52:27.998Z,18.90
2018-08-11T21:54:54.973Z,18.80
2018-08-11T21:57:21.957Z,19.00
2018-08-11T21:59:49.390Z,18.80
2018-08-11T22:02:16.546Z,18.80
2018-08-11T22:04:43.496Z,18.90
2018-08-11T22:07:10.478Z,18.90
2018-08-11T22:09:37.609Z,18.90
2018-08-11T22:12:04.557Z,18.80
2018-08-11T22:14:31.600Z,18.90
2018-08-11T22:16:59.215Z,18.90
2018-08-11T22:19:26.295Z,18.90
2018-08-11T22:21:53.286Z,19.00
2018-08-11T22:24:20.363Z,18.80
2018-08-11T22:31:41.653Z,18.70
2018-08-11T22:34:08.668Z,18.40
2018-08-11T22:36:35.713Z,18.30
2018-08-11T22:39:02.806Z,18.30
2018-08-11T22:41:30.275Z,18.40
2018-08-11T22:43:57.643Z,18.50
2018-08-11T22:46:24.709Z,18.60
2018-08-11T22:48:51.720Z,18.50
2018-08-11T22:51:18.739Z,18.80
2018-08-11T22:53:45.724Z,18.70
2018-08-11T22:56:12.651Z,18.60
2018-08-11T22:58:40.037Z,18.70
2018-08-11T23:01:07.235Z,18.50
2018-08-11T23:03:34.272Z,18.50
2018-08-11T23:06:01.394Z,18.60
2018-08-11T23:08:28.545Z,18.70
2018-08-11T23:10:55.545Z,18.70
2018-08-11T23:13:22.519Z,18.60
2018-08-11T23:15:49.514Z,18.60
2018-08-11T23:18:16.575Z,18.60
2018-08-11T23:20:43.889Z,18.60
2018-08-11T23:23:10.932Z,18.40
2018-08-11T23:25:38.336Z,18.50
2018-08-11T23:28:05.424Z,18.40
2018-08-11T23:30:32.449Z,18.30
2018-08-11T23:32:59.413Z,18.30
2018-08-11T23:35:26.600Z,18.30
2018-08-11T23:37:53.807Z,18.30
2018-08-11T23:40:20.768Z,18.40
2018-08-11T23:42:48.106Z,18.30
2018-08-11T23:45:15.799Z,18.30
2018-08-11T23:47:42.937Z,18.40
2018-08-11T23:50:10.955Z,18.30
2018-08-11T23:52:38.345Z,18.20
2018-08-11T23:55:06.501Z,18.20
2018-08-11T23:57:33.879Z,18.20
